createdAt,value
2016-11-04T00:00:12.735Z,957.55
2016-11-04T00:01:13.863Z,957.59
2016-11-04T00:02:12.982Z,957.57
2016-11-04T00:03:15.687Z,957.60
2016-11-04T00:04:17.403Z,957.59
2016-11-04T00:05:14.017Z,957.59
2016-11-04T00:06:13.344Z,957.59
2016-11-04T00:07:12.825Z,957.53
2016-11-04T00:08:13.279Z,957.58
2016-11-04T00:09:13.013Z,957.59
2016-11-04T00:10:14.666Z,957.56
2016-11-04T00:11:14.630Z,957.54
2016-11-04T00:12:13.126Z,957.54
2016-11-04T00:13:13.626Z,957.55
2016-11-04T00:14:13.143Z,957.52
2016-11-04T00:15:13.227Z,957.49
2016-11-04T00:16:12.697Z,957.49
2016-11-04T00:17:12.545Z,957.54
2016-11-04T00:18:12.484Z,957.45
2016-11-04T00:19:12.841Z,957.46
2016-11-04T00:20:12.875Z,957.46
2016-11-04T00:21:12.420Z,957.45
2016-11-04T00:22:16.410Z,957.40
2016-11-04T00:23:13.967Z,957.41
2016-11-04T00:24:12.072Z,957.43
2016-11-04T00:25:12.900Z,957.43
2016-11-04T00:26:12.302Z,957.44
2016-11-04T00:27:13.461Z,957.38
2016-11-04T00:28:12.407Z,957.40
2016-11-04T00:29:13.310Z,957.41
2016-11-04T00:30:13.173Z,957.37
2016-11-04T00:31:14.011Z,957.37
2016-11-04T00:32:13.626Z,957.39
2016-11-04T00:33:14.843Z,957.39
2016-11-04T00:34:12.402Z,957.39
2016-11-04T00:35:14.291Z,957.39
2016-11-04T00:36:13.363Z,957.39
2016-11-04T00:37:14.353Z,957.42
2016-11-04T00:38:13.795Z,957.38
2016-11-04T00:39:12.154Z,957.38
2016-11-04T00:40:12.517Z,957.34
2016-11-04T00:41:13.680Z,957.37
2016-11-04T00:42:14.270Z,957.38
2016-11-04T00:43:14.876Z,957.36
2016-11-04T00:44:13.121Z,957.33
2016-11-04T00:45:12.509Z,957.31
2016-11-04T00:46:12.759Z,957.33
2016-11-04T00:47:12.679Z,957.33
2016-11-04T00:48:13.605Z,957.40
2016-11-04T00:49:12.890Z,957.42
2016-11-04T00:50:12.304Z,957.38
2016-11-04T00:51:12.829Z,957.35
2016-11-04T00:52:13.601Z,957.33
2016-11-04T00:53:13.100Z,957.31
2016-11-04T00:54:13.384Z,957.35
2016-11-04T00:55:18.338Z,957.36
2016-11-04T00:56:13.324Z,957.34
2016-11-04T00:57:11.915Z,957.33
2016-11-04T00:58:13.507Z,957.30
2016-11-04T00:59:13.625Z,957.29
2016-11-04T01:00:13.678Z,957.28
2016-11-04T01:01:15.077Z,957.28
2016-11-04T01:02:14.268Z,957.23
2016-11-04T01:03:12.737Z,957.25
2016-11-04T01:04:11.801Z,957.22
2016-11-04T01:05:15.773Z,957.24
2016-11-04T01:06:12.641Z,957.20
2016-11-04T01:07:15.409Z,957.21
2016-11-04T01:08:13.341Z,957.22
2016-11-04T01:09:13.889Z,957.20
2016-11-04T01:10:13.724Z,957.21
2016-11-04T01:11:13.705Z,957.20
2016-11-04T01:12:13.701Z,957.23
2016-11-04T01:13:14.565Z,957.19
2016-11-04T01:14:15.456Z,957.20
2016-11-04T01:15:13.942Z,957.19
2016-11-04T01:16:13.489Z,957.18
2016-11-04T01:17:13.407Z,957.14
2016-11-04T01:18:13.411Z,957.16
2016-11-04T01:19:13.753Z,957.16
2016-11-04T01:20:10.562Z,957.15
2016-11-04T01:21:14.276Z,957.13
2016-11-04T01:22:13.319Z,957.10
2016-11-04T01:23:13.426Z,957.14
2016-11-04T01:24:13.159Z,957.07
2016-11-04T01:25:12.521Z,957.09
2016-11-04T01:26:13.629Z,957.04
2016-11-04T01:27:13.200Z,957.07
2016-11-04T01:28:13.468Z,957.03
2016-11-04T01:29:16.151Z,957.05
2016-11-04T01:30:12.429Z,957.03
2016-11-04T01:31:13.744Z,956.99
2016-11-04T01:32:12.996Z,957.00
2016-11-04T01:33:15.749Z,956.96
2016-11-04T01:34:20.879Z,956.95
2016-11-04T01:35:12.692Z,956.96
2016-11-04T01:36:14.188Z,956.92
2016-11-04T01:37:13.931Z,956.92
2016-11-04T01:38:14.531Z,956.91
2016-11-04T01:39:15.446Z,956.92
2016-11-04T01:40:13.355Z,956.93
2016-11-04T01:41:14.942Z,956.93
2016-11-04T01:42:13.600Z,956.89
2016-11-04T01:43:14.423Z,956.89
2016-11-04T01:44:18.418Z,956.90
2016-11-04T01:45:12.121Z,956.90
2016-11-04T01:46:13.936Z,956.82
2016-11-04T01:47:13.370Z,956.84
2016-11-04T01:48:15.869Z,956.85
2016-11-04T01:49:12.234Z,956.82
2016-11-04T01:50:13.507Z,956.84
2016-11-04T01:51:19.262Z,956.85
2016-11-04T01:52:14.308Z,956.86
2016-11-04T01:53:12.795Z,956.80
2016-11-04T01:54:13.018Z,956.79
2016-11-04T01:55:12.843Z,956.80
2016-11-04T01:56:12.305Z,956.82
2016-11-04T01:57:13.025Z,956.84
2016-11-04T01:58:14.971Z,956.80
2016-11-04T01:59:13.146Z,956.84
2016-11-04T02:00:13.275Z,956.80
2016-11-04T02:01:14.835Z,956.80
2016-11-04T02:02:17.269Z,956.82
2016-11-04T02:03:13.142Z,956.78
2016-11-04T02:04:19.159Z,956.85
2016-11-04T02:05:13.087Z,956.80
2016-11-04T02:06:12.809Z,956.82
2016-11-04T02:07:11.722Z,956.82
2016-11-04T02:08:14.028Z,956.83
2016-11-04T02:09:13.412Z,956.82
2016-11-04T02:10:15.929Z,956.81
2016-11-04T02:11:14.157Z,956.79
2016-11-04T02:12:14.061Z,956.80
2016-11-04T02:13:14.041Z,956.83
2016-11-04T02:14:14.806Z,956.77
2016-11-04T02:15:14.040Z,956.83
2016-11-04T02:16:12.036Z,956.81
2016-11-04T02:17:15.540Z,956.81
2016-11-04T02:18:13.880Z,956.78
2016-11-04T02:19:15.041Z,956.84
2016-11-04T02:20:14.648Z,956.83
2016-11-04T02:21:15.149Z,956.79
2016-11-04T02:22:12.946Z,956.78
2016-11-04T02:23:14.384Z,956.77
2016-11-04T02:24:14.439Z,956.71
2016-11-04T02:25:13.289Z,956.71
2016-11-04T02:26:14.702Z,956.69
2016-11-04T02:27:12.311Z,956.69
2016-11-04T02:28:14.598Z,956.72
2016-11-04T02:29:15.321Z,956.65
2016-11-04T02:30:13.838Z,956.69
2016-11-04T02:31:13.644Z,956.66
2016-11-04T02:32:14.908Z,956.64
2016-11-04T02:33:13.814Z,956.65
2016-11-04T02:34:12.676Z,956.65
2016-11-04T02:35:14.945Z,956.61
2016-11-04T02:36:13.878Z,956.57
2016-11-04T02:37:13.798Z,956.60
2016-11-04T02:38:13.147Z,956.59
2016-11-04T02:39:15.864Z,956.56
2016-11-04T02:40:16.488Z,956.54
2016-11-04T02:41:13.421Z,956.52
2016-11-04T02:42:16.247Z,956.51
2016-11-04T02:43:15.488Z,956.49
2016-11-04T02:44:14.180Z,956.46
2016-11-04T02:45:14.312Z,956.49
2016-11-04T02:46:15.075Z,956.50
2016-11-04T02:47:13.706Z,956.52
2016-11-04T02:48:14.410Z,956.53
2016-11-04T02:49:20.926Z,956.49
2016-11-04T02:50:12.472Z,956.49
2016-11-04T02:51:12.530Z,956.49
2016-11-04T02:52:14.157Z,956.43
2016-11-04T02:53:12.820Z,956.48
2016-11-04T02:54:13.051Z,956.50
2016-11-04T02:55:12.148Z,956.45
2016-11-04T02:56:14.471Z,956.48
2016-11-04T02:57:14.108Z,956.48
2016-11-04T02:58:13.779Z,956.50
2016-11-04T02:59:12.961Z,956.48
2016-11-04T03:00:12.365Z,956.42
2016-11-04T03:01:12.873Z,956.45
2016-11-04T03:02:12.840Z,956.45
2016-11-04T03:03:14.324Z,956.45
2016-11-04T03:04:14.539Z,956.43
2016-11-04T03:05:13.279Z,956.43
2016-11-04T03:06:13.068Z,956.42
2016-11-04T03:07:13.150Z,956.38
2016-11-04T03:08:15.398Z,956.37
2016-11-04T03:09:13.638Z,956.31
2016-11-04T03:10:15.008Z,956.35
2016-11-04T03:11:14.735Z,956.38
2016-11-04T03:12:13.260Z,956.43
2016-11-04T03:13:18.139Z,956.40
2016-11-04T03:14:14.336Z,956.40
2016-11-04T03:15:19.695Z,956.39
2016-11-04T03:16:12.448Z,956.36
2016-11-04T03:17:13.772Z,956.38
2016-11-04T03:18:12.614Z,956.34
2016-11-04T03:19:13.740Z,956.31
2016-11-04T03:20:12.934Z,956.27
2016-11-04T03:21:14.286Z,956.30
2016-11-04T03:22:15.278Z,956.29
2016-11-04T03:23:13.700Z,956.30
2016-11-04T03:24:14.505Z,956.32
2016-11-04T03:25:12.780Z,956.27
2016-11-04T03:26:12.301Z,956.26
2016-11-04T03:27:14.081Z,956.26
2016-11-04T03:28:13.979Z,956.21
2016-11-04T03:29:11.547Z,956.19
2016-11-04T03:30:11.983Z,956.17
2016-11-04T03:31:14.659Z,956.21
2016-11-04T03:32:13.411Z,956.22
2016-11-04T03:33:14.949Z,956.21
2016-11-04T03:34:13.496Z,956.16
2016-11-04T03:35:19.685Z,956.16
2016-11-04T03:36:15.460Z,956.14
2016-11-04T03:37:11.454Z,956.19
2016-11-04T03:38:11.819Z,956.20
2016-11-04T03:39:10.429Z,956.18
2016-11-04T03:40:15.088Z,956.18
2016-11-04T03:41:16.600Z,956.14
2016-11-04T03:42:14.029Z,956.13
2016-11-04T03:43:12.460Z,956.19
2016-11-04T03:44:15.926Z,956.19
2016-11-04T03:45:12.426Z,956.22
2016-11-04T03:46:11.024Z,956.25
2016-11-04T03:47:12.978Z,956.16
2016-11-04T03:48:12.833Z,956.16
2016-11-04T03:49:13.042Z,956.19
2016-11-04T03:50:13.523Z,956.19
2016-11-04T03:51:12.874Z,956.19
2016-11-04T03:52:11.813Z,956.14
2016-11-04T03:53:13.669Z,956.14
2016-11-04T03:54:13.504Z,956.12
2016-11-04T03:55:14.622Z,956.13
2016-11-04T03:56:14.207Z,956.11
2016-11-04T03:57:12.569Z,956.12
2016-11-04T03:58:13.455Z,956.12
2016-11-04T03:59:15.371Z,956.13
2016-11-04T04:00:13.267Z,956.13
2016-11-04T04:01:12.706Z,956.15
2016-11-04T04:02:13.538Z,956.19
2016-11-04T04:03:13.741Z,956.13
2016-11-04T04:04:15.377Z,956.17
2016-11-04T04:05:12.135Z,956.10
2016-11-04T04:06:12.814Z,956.11
2016-11-04T04:07:12.465Z,956.07
2016-11-04T04:08:15.082Z,956.04
2016-11-04T04:09:13.104Z,956.04
2016-11-04T04:10:12.465Z,956.06
2016-11-04T04:11:11.203Z,956.04
2016-11-04T04:12:13.451Z,956.06
2016-11-04T04:13:13.337Z,956.07
2016-11-04T04:14:18.490Z,956.11
2016-11-04T04:15:13.621Z,956.06
2016-11-04T04:16:13.199Z,956.11
2016-11-04T04:17:13.734Z,956.12
2016-11-04T04:18:13.481Z,956.07
2016-11-04T04:19:19.178Z,956.12
2016-11-04T04:20:14.500Z,956.09
2016-11-04T04:21:14.175Z,956.08
2016-11-04T04:22:12.826Z,956.04
2016-11-04T04:23:13.615Z,956.07
2016-11-04T04:24:14.208Z,956.08
2016-11-04T04:25:13.606Z,956.00
2016-11-04T04:26:12.812Z,956.01
2016-11-04T04:27:13.225Z,956.00
2016-11-04T04:28:13.707Z,956.01
2016-11-04T04:29:13.720Z,956.02
2016-11-04T04:30:14.721Z,956.04
2016-11-04T04:31:13.986Z,955.98
2016-11-04T04:32:17.129Z,955.98
2016-11-04T04:33:13.168Z,956.00
2016-11-04T04:34:12.939Z,955.91
2016-11-04T04:35:14.625Z,955.90
2016-11-04T04:36:12.661Z,955.89
2016-11-04T04:37:14.463Z,955.90
2016-11-04T04:38:13.511Z,955.90
2016-11-04T04:39:11.998Z,955.90
2016-11-04T04:40:13.710Z,955.91
2016-11-04T04:41:13.906Z,955.84
2016-11-04T04:42:12.741Z,955.86
2016-11-04T04:43:13.174Z,955.80
2016-11-04T04:44:12.913Z,955.82
2016-11-04T04:45:13.097Z,955.82
2016-11-04T04:46:13.514Z,955.82
2016-11-04T04:47:12.092Z,955.79
2016-11-04T04:48:13.257Z,955.82
2016-11-04T04:49:12.692Z,955.83
2016-11-04T04:50:13.337Z,955.86
2016-11-04T04:51:14.562Z,955.84
2016-11-04T04:52:12.253Z,955.82
2016-11-04T04:53:13.584Z,955.76
2016-11-04T04:54:12.497Z,955.77
2016-11-04T04:55:13.586Z,955.76
2016-11-04T04:56:12.567Z,955.75
2016-11-04T04:57:13.710Z,955.72
2016-11-04T04:58:13.652Z,955.73
2016-11-04T04:59:14.378Z,955.75
2016-11-04T05:00:13.172Z,955.71
2016-11-04T05:01:13.990Z,955.73
2016-11-04T05:02:13.836Z,955.70
2016-11-04T05:03:13.337Z,955.72
2016-11-04T05:04:13.863Z,955.72
2016-11-04T05:05:11.984Z,955.72
2016-11-04T05:06:12.901Z,955.76
2016-11-04T05:07:12.459Z,955.69
2016-11-04T05:08:12.513Z,955.70
2016-11-04T05:09:13.633Z,955.67
2016-11-04T05:10:13.588Z,955.70
2016-11-04T05:11:12.998Z,955.68
2016-11-04T05:12:12.524Z,955.69
2016-11-04T05:13:12.634Z,955.67
2016-11-04T05:14:13.113Z,955.68
2016-11-04T05:15:19.883Z,955.69
2016-11-04T05:16:14.545Z,955.70
2016-11-04T05:17:13.155Z,955.68
2016-11-04T05:18:13.087Z,955.65
2016-11-04T05:19:19.550Z,955.65
2016-11-04T05:20:13.018Z,955.62
2016-11-04T05:21:12.635Z,955.63
2016-11-04T05:22:13.742Z,955.58
2016-11-04T05:23:13.178Z,955.56
2016-11-04T05:24:12.672Z,955.56
2016-11-04T05:25:17.192Z,955.59
2016-11-04T05:26:18.337Z,955.57
2016-11-04T05:27:17.052Z,955.52
2016-11-04T05:28:13.306Z,955.52
2016-11-04T05:29:13.215Z,955.50
2016-11-04T05:30:14.957Z,955.49
2016-11-04T05:31:13.923Z,955.51
2016-11-04T05:32:12.964Z,955.51
2016-11-04T05:33:13.202Z,955.56
2016-11-04T05:34:13.327Z,955.54
2016-11-04T05:35:14.068Z,955.49
2016-11-04T05:36:13.830Z,955.46
2016-11-04T05:37:12.814Z,955.44
2016-11-04T05:38:13.670Z,955.41
2016-11-04T05:39:13.857Z,955.41
2016-11-04T05:40:12.828Z,955.40
2016-11-04T05:41:12.382Z,955.36
2016-11-04T05:42:13.355Z,955.37
2016-11-04T05:43:13.611Z,955.37
2016-11-04T05:44:20.934Z,955.42
2016-11-04T05:45:20.331Z,955.40
2016-11-04T05:46:13.105Z,955.40
2016-11-04T05:47:13.046Z,955.36
2016-11-04T05:48:18.784Z,955.41
2016-11-04T05:49:14.510Z,955.42
2016-11-04T05:50:13.665Z,955.37
2016-11-04T05:51:13.209Z,955.42
2016-11-04T05:52:12.374Z,955.38
2016-11-04T05:53:13.242Z,955.38
2016-11-04T05:54:12.979Z,955.35
2016-11-04T05:55:12.333Z,955.35
2016-11-04T05:56:12.023Z,955.34
2016-11-04T05:57:12.465Z,955.33
2016-11-04T05:58:12.873Z,955.27
2016-11-04T05:59:13.163Z,955.31
2016-11-04T06:00:13.934Z,955.28
2016-11-04T06:01:12.873Z,955.28
2016-11-04T06:02:12.246Z,955.26
2016-11-04T06:03:13.026Z,955.22
2016-11-04T06:04:12.647Z,955.24
2016-11-04T06:05:13.413Z,955.23
2016-11-04T06:06:13.503Z,955.22
2016-11-04T06:07:12.810Z,955.22
2016-11-04T06:08:13.488Z,955.19
2016-11-04T06:09:13.065Z,955.20
2016-11-04T06:10:13.019Z,955.22
2016-11-04T06:11:13.925Z,955.18
2016-11-04T06:12:12.323Z,955.15
2016-11-04T06:13:12.632Z,955.13
2016-11-04T06:14:13.596Z,955.11
2016-11-04T06:15:14.408Z,955.10
2016-11-04T06:16:12.705Z,955.15
2016-11-04T06:17:13.338Z,955.17
2016-11-04T06:18:12.692Z,955.18
2016-11-04T06:19:14.011Z,955.21
2016-11-04T06:20:12.684Z,955.27
2016-11-04T06:21:14.425Z,955.37
2016-11-04T06:22:13.203Z,955.32
2016-11-04T06:23:12.031Z,955.33
2016-11-04T06:24:14.367Z,955.33
2016-11-04T06:25:13.023Z,955.28
2016-11-04T06:26:13.598Z,955.24
2016-11-04T06:27:13.047Z,955.25
2016-11-04T06:28:12.616Z,955.28
2016-11-04T06:29:12.975Z,955.30
2016-11-04T06:30:12.838Z,955.28
2016-11-04T06:31:12.418Z,955.30
2016-11-04T06:32:12.744Z,955.23
2016-11-04T06:33:12.653Z,955.26
2016-11-04T06:34:13.384Z,955.22
2016-11-04T06:35:13.019Z,955.26
2016-11-04T06:36:11.775Z,955.24
2016-11-04T06:37:13.394Z,955.20
2016-11-04T06:38:13.765Z,955.19
2016-11-04T06:39:12.968Z,955.18
2016-11-04T06:40:12.459Z,955.18
2016-11-04T06:41:13.318Z,955.19
2016-11-04T06:42:14.151Z,955.26
2016-11-04T06:43:12.895Z,955.21
2016-11-04T06:44:13.041Z,955.21
2016-11-04T06:45:12.777Z,955.17
2016-11-04T06:46:16.798Z,955.10
2016-11-04T06:47:13.112Z,955.09
2016-11-04T06:48:12.629Z,955.10
2016-11-04T06:49:13.716Z,955.08
2016-11-04T06:50:13.156Z,955.11
2016-11-04T06:51:10.638Z,955.11
2016-11-04T06:52:12.784Z,955.13
2016-11-04T06:53:14.618Z,955.11
2016-11-04T06:54:13.032Z,955.07
2016-11-04T06:55:12.847Z,955.08
2016-11-04T06:56:12.375Z,955.07
2016-11-04T06:57:20.735Z,955.09
2016-11-04T06:58:12.468Z,955.06
2016-11-04T06:59:19.549Z,955.04
2016-11-04T07:00:13.774Z,955.01
2016-11-04T07:01:11.377Z,955.05
2016-11-04T07:02:13.092Z,954.99
2016-11-04T07:03:12.755Z,955.01
2016-11-04T07:04:12.338Z,955.04
2016-11-04T07:05:12.729Z,955.00
2016-11-04T07:06:13.502Z,955.06
2016-11-04T07:07:14.318Z,955.01
2016-11-04T07:08:13.082Z,955.02
2016-11-04T07:09:12.684Z,955.02
2016-11-04T07:10:14.088Z,955.00
2016-11-04T07:11:12.075Z,955.02
2016-11-04T07:12:13.133Z,954.99
2016-11-04T07:13:10.839Z,955.04
2016-11-04T07:14:10.712Z,955.00
2016-11-04T07:15:13.540Z,954.98
2016-11-04T07:16:14.005Z,954.98
2016-11-04T07:17:13.873Z,954.96
2016-11-04T07:18:11.392Z,954.96
2016-11-04T07:19:13.803Z,954.95
2016-11-04T07:20:13.850Z,954.96
2016-11-04T07:21:12.938Z,954.90
2016-11-04T07:22:12.584Z,954.90
2016-11-04T07:23:18.875Z,954.91
2016-11-04T07:24:13.702Z,954.89
2016-11-04T07:25:15.443Z,954.86
2016-11-04T07:26:13.954Z,954.88
2016-11-04T07:27:12.874Z,954.86
2016-11-04T07:28:11.457Z,954.88
2016-11-04T07:29:13.141Z,954.89
2016-11-04T07:30:12.825Z,954.87
2016-11-04T07:31:13.260Z,954.91
2016-11-04T07:32:12.778Z,954.88
2016-11-04T07:33:12.238Z,954.91
2016-11-04T07:34:19.602Z,954.88
2016-11-04T07:35:13.486Z,954.86
2016-11-04T07:36:11.270Z,954.88
2016-11-04T07:37:12.838Z,954.88
2016-11-04T07:38:12.840Z,954.88
2016-11-04T07:39:12.661Z,954.91
2016-11-04T07:40:14.269Z,954.90
2016-11-04T07:41:13.915Z,954.89
2016-11-04T07:42:18.563Z,954.87
2016-11-04T07:43:14.794Z,954.85
2016-11-04T07:44:13.695Z,954.87
2016-11-04T07:45:13.064Z,954.84
2016-11-04T07:46:12.469Z,954.86
2016-11-04T07:47:13.045Z,954.88
2016-11-04T07:48:13.035Z,954.91
2016-11-04T07:49:12.764Z,954.90
2016-11-04T07:50:12.322Z,954.88
2016-11-04T07:51:14.234Z,954.94
2016-11-04T07:52:13.126Z,954.90
2016-11-04T07:53:12.819Z,954.95
2016-11-04T07:54:13.783Z,954.95
2016-11-04T07:55:12.685Z,954.93
2016-11-04T07:56:13.061Z,954.94
2016-11-04T07:57:11.928Z,954.94
2016-11-04T07:58:14.526Z,954.91
2016-11-04T07:59:13.375Z,954.89
2016-11-04T08:00:13.555Z,954.87
2016-11-04T08:01:12.984Z,954.86
2016-11-04T08:02:19.757Z,954.92
2016-11-04T08:03:12.565Z,954.87
2016-11-04T08:04:12.883Z,954.89
2016-11-04T08:05:12.861Z,954.89
2016-11-04T08:06:12.747Z,954.88
2016-11-04T08:07:11.307Z,954.90
2016-11-04T08:08:13.000Z,954.91
2016-11-04T08:09:13.095Z,954.93
2016-11-04T08:10:13.124Z,954.91
2016-11-04T08:11:19.264Z,954.93
2016-11-04T08:12:13.364Z,954.89
2016-11-04T08:13:12.582Z,954.87
2016-11-04T08:14:12.574Z,954.94
2016-11-04T08:15:13.823Z,954.87
2016-11-04T08:16:15.003Z,954.90
2016-11-04T08:17:14.004Z,954.90
2016-11-04T08:18:12.987Z,954.88
2016-11-04T08:19:12.928Z,954.88
2016-11-04T08:20:12.795Z,954.85
2016-11-04T08:21:12.239Z,954.93
2016-11-04T08:22:13.946Z,954.92
2016-11-04T08:23:13.245Z,954.92
2016-11-04T08:24:13.384Z,954.90
2016-11-04T08:25:12.934Z,954.91
2016-11-04T08:26:13.459Z,954.90
2016-11-04T08:27:19.793Z,954.92
2016-11-04T08:28:12.599Z,954.89
2016-11-04T08:29:13.161Z,954.91
2016-11-04T08:30:15.787Z,954.89
2016-11-04T08:31:11.752Z,954.91
2016-11-04T08:32:12.796Z,954.92
2016-11-04T08:33:13.224Z,954.87
2016-11-04T08:34:13.003Z,954.85
2016-11-04T08:35:13.752Z,954.83
2016-11-04T08:36:12.535Z,954.83
2016-11-04T08:37:12.831Z,954.86
2016-11-04T08:38:12.347Z,954.67
2016-11-04T08:39:13.276Z,954.80
2016-11-04T08:40:12.543Z,954.82
2016-11-04T08:41:13.489Z,954.74
2016-11-04T08:42:11.120Z,954.78
2016-11-04T08:43:13.173Z,954.78
2016-11-04T08:44:13.750Z,954.80
2016-11-04T08:45:12.623Z,954.79
2016-11-04T08:46:13.946Z,954.75
2016-11-04T08:47:13.428Z,954.75
2016-11-04T08:48:11.465Z,954.77
2016-11-04T08:49:12.303Z,954.76
2016-11-04T08:50:13.003Z,954.72
2016-11-04T08:51:13.031Z,954.78
2016-11-04T08:52:12.868Z,954.80
2016-11-04T08:53:13.075Z,954.82
2016-11-04T08:54:13.285Z,954.79
2016-11-04T08:55:13.471Z,954.81
2016-11-04T08:56:13.271Z,954.81
2016-11-04T08:57:13.301Z,954.77
2016-11-04T08:58:13.375Z,954.83
2016-11-04T08:59:15.262Z,954.80
2016-11-04T09:00:12.919Z,954.81
2016-11-04T09:01:13.041Z,954.80
2016-11-04T09:02:12.128Z,954.83
2016-11-04T09:03:13.217Z,954.85
2016-11-04T09:04:10.655Z,954.86
2016-11-04T09:05:12.665Z,954.85
2016-11-04T09:06:13.308Z,954.84
2016-11-04T09:07:13.741Z,954.83
2016-11-04T09:08:14.505Z,954.81
2016-11-04T09:09:13.365Z,954.83
2016-11-04T09:10:12.534Z,954.85
2016-11-04T09:11:13.249Z,954.86
2016-11-04T09:12:13.057Z,954.85
2016-11-04T09:13:18.284Z,954.89
2016-11-04T09:14:13.020Z,954.90
2016-11-04T09:15:12.964Z,954.89
2016-11-04T09:16:18.169Z,954.91
2016-11-04T09:17:13.988Z,954.90
2016-11-04T09:18:16.678Z,954.88
2016-11-04T09:19:13.119Z,954.89
2016-11-04T09:20:13.970Z,954.84
2016-11-04T09:21:12.755Z,954.89
2016-11-04T09:22:18.080Z,954.87
2016-11-04T09:23:12.671Z,954.85
2016-11-04T09:24:18.715Z,954.86
2016-11-04T09:25:13.180Z,954.87
2016-11-04T09:26:13.058Z,954.86
2016-11-04T09:27:12.678Z,954.87
2016-11-04T09:28:12.889Z,954.89
2016-11-04T09:29:10.151Z,954.88
2016-11-04T09:30:12.904Z,954.86
2016-11-04T09:31:12.871Z,954.89
2016-11-04T09:32:13.151Z,954.91
2016-11-04T09:33:12.617Z,954.88
2016-11-04T09:34:13.065Z,954.80
2016-11-04T09:35:13.642Z,954.85
2016-11-04T09:36:14.310Z,954.79
2016-11-04T09:37:13.835Z,954.80
2016-11-04T09:38:13.230Z,954.78
2016-11-04T09:39:10.872Z,954.77
2016-11-04T09:40:14.033Z,954.77
2016-11-04T09:41:14.819Z,954.76
2016-11-04T09:42:17.968Z,954.78
2016-11-04T09:43:12.543Z,954.78
2016-11-04T09:44:13.278Z,954.83
2016-11-04T09:45:13.039Z,954.84
2016-11-04T09:46:13.246Z,954.86
2016-11-04T09:47:14.785Z,954.86
2016-11-04T09:48:12.512Z,954.85
2016-11-04T09:49:13.013Z,954.84
2016-11-04T09:50:13.473Z,954.88
2016-11-04T09:51:13.422Z,954.84
2016-11-04T09:52:12.803Z,954.84
2016-11-04T09:53:14.268Z,954.83
2016-11-04T09:54:12.721Z,954.85
2016-11-04T09:55:13.749Z,954.87
2016-11-04T09:56:13.454Z,954.85
2016-11-04T09:57:14.149Z,954.81
2016-11-04T09:58:13.289Z,954.79
2016-11-04T09:59:15.151Z,954.78
2016-11-04T10:00:13.654Z,954.78
2016-11-04T10:01:13.677Z,954.80
2016-11-04T10:02:14.010Z,954.78
2016-11-04T10:03:12.344Z,954.81
2016-11-04T10:04:12.841Z,954.75
2016-11-04T10:05:15.605Z,954.79
2016-11-04T10:06:13.808Z,954.76
2016-11-04T10:07:12.960Z,954.79
2016-11-04T10:08:11.644Z,954.73
2016-11-04T10:09:13.239Z,954.73
2016-11-04T10:10:13.600Z,954.69
2016-11-04T10:11:13.349Z,954.69
2016-11-04T10:12:13.806Z,954.71
2016-11-04T10:13:12.342Z,954.71
2016-11-04T10:14:12.626Z,954.69
2016-11-04T10:15:14.244Z,954.73
2016-11-04T10:16:10.117Z,954.73
2016-11-04T10:17:13.610Z,954.72
2016-11-04T10:18:14.956Z,954.74
2016-11-04T10:19:12.534Z,954.71
2016-11-04T10:20:20.744Z,954.67
2016-11-04T10:21:13.003Z,954.61
2016-11-04T10:22:12.918Z,954.60
2016-11-04T10:23:12.795Z,954.62
2016-11-04T10:24:13.027Z,954.55
2016-11-04T10:25:12.810Z,954.50
2016-11-04T10:26:16.685Z,954.49
2016-11-04T10:27:13.381Z,954.49
2016-11-04T10:28:13.746Z,954.45
2016-11-04T10:29:13.630Z,954.46
2016-11-04T10:30:13.122Z,954.47
2016-11-04T10:31:12.846Z,954.52
2016-11-04T10:32:12.454Z,954.51
2016-11-04T10:33:18.837Z,954.49
2016-11-04T10:34:13.779Z,954.52
2016-11-04T10:35:12.754Z,954.53
2016-11-04T10:36:12.994Z,954.46
2016-11-04T10:37:13.271Z,954.44
2016-11-04T10:38:13.478Z,954.46
2016-11-04T10:39:12.918Z,954.45
2016-11-04T10:40:11.557Z,954.44
2016-11-04T10:41:12.457Z,954.43
2016-11-04T10:42:13.228Z,954.41
2016-11-04T10:43:13.677Z,954.40
2016-11-04T10:44:15.886Z,954.39
2016-11-04T10:45:12.983Z,954.35
2016-11-04T10:46:13.865Z,954.33
2016-11-04T10:47:12.695Z,954.31
2016-11-04T10:48:13.360Z,954.26
2016-11-04T10:49:19.985Z,954.25
2016-11-04T10:50:13.253Z,954.25
2016-11-04T10:51:12.911Z,954.25
2016-11-04T10:52:12.812Z,954.26
2016-11-04T10:53:13.095Z,954.20
2016-11-04T10:54:13.958Z,954.12
2016-11-04T10:55:13.263Z,954.08
2016-11-04T10:56:14.074Z,954.08
2016-11-04T10:57:12.596Z,954.06
2016-11-04T10:58:13.333Z,954.07
2016-11-04T10:59:13.324Z,954.10
2016-11-04T11:00:14.063Z,954.07
2016-11-04T11:01:12.715Z,954.05
2016-11-04T11:02:13.324Z,954.05
2016-11-04T11:03:13.032Z,953.97
2016-11-04T11:04:13.003Z,953.96
2016-11-04T11:05:12.553Z,953.94
2016-11-04T11:06:13.743Z,953.94
2016-11-04T11:07:13.001Z,953.96
2016-11-04T11:08:13.646Z,953.96
2016-11-04T11:09:13.076Z,953.91
2016-11-04T11:10:19.075Z,953.89
2016-11-04T11:11:12.757Z,953.84
2016-11-04T11:12:13.201Z,953.88
2016-11-04T11:13:12.716Z,953.88
2016-11-04T11:14:13.219Z,953.86
2016-11-04T11:15:12.858Z,953.86
2016-11-04T11:16:11.782Z,953.80
2016-11-04T11:17:13.149Z,953.85
2016-11-04T11:18:13.360Z,953.83
2016-11-04T11:19:12.850Z,953.81
2016-11-04T11:20:12.731Z,953.82
2016-11-04T11:21:13.688Z,953.74
2016-11-04T11:22:13.445Z,953.71
2016-11-04T11:23:14.017Z,953.68
2016-11-04T11:24:12.807Z,953.68
2016-11-04T11:25:10.251Z,953.69
2016-11-04T11:26:13.540Z,953.70
2016-11-04T11:27:13.565Z,953.73
2016-11-04T11:28:13.052Z,953.72
2016-11-04T11:29:13.083Z,953.66
2016-11-04T11:30:13.184Z,953.63
2016-11-04T11:31:12.951Z,953.62
2016-11-04T11:32:14.113Z,953.60
2016-11-04T11:33:13.029Z,953.59
2016-11-04T11:34:18.492Z,953.63
2016-11-04T11:35:19.033Z,953.60
2016-11-04T11:36:14.817Z,953.57
2016-11-04T11:37:12.556Z,953.54
2016-11-04T11:38:11.042Z,953.52
2016-11-04T11:39:14.897Z,953.50
2016-11-04T11:40:13.308Z,953.50
2016-11-04T11:41:13.102Z,953.50
2016-11-04T11:42:12.717Z,953.50
2016-11-04T11:43:12.223Z,953.50
2016-11-04T11:44:13.057Z,953.47
2016-11-04T11:45:13.510Z,953.47
2016-11-04T11:46:13.635Z,953.50
2016-11-04T11:47:12.048Z,953.45
2016-11-04T11:48:13.978Z,953.43
2016-11-04T11:49:12.655Z,953.37
2016-11-04T11:50:13.289Z,953.35
2016-11-04T11:51:13.213Z,953.29
2016-11-04T11:52:13.620Z,953.26
2016-11-04T11:53:14.219Z,953.30
2016-11-04T11:54:13.099Z,953.31
2016-11-04T11:55:13.518Z,953.29
2016-11-04T11:56:13.585Z,953.33
2016-11-04T11:57:12.465Z,953.25
2016-11-04T11:58:13.551Z,953.27
2016-11-04T11:59:13.545Z,953.29
2016-11-04T12:00:13.068Z,953.29
2016-11-04T12:01:12.562Z,953.21
2016-11-04T12:02:13.261Z,953.18
2016-11-04T12:03:13.375Z,953.21
2016-11-04T12:04:12.843Z,953.16
2016-11-04T12:05:13.245Z,953.15
2016-11-04T12:06:14.024Z,953.13
2016-11-04T12:07:13.414Z,953.13
2016-11-04T12:08:12.944Z,953.15
2016-11-04T12:09:13.171Z,953.12
2016-11-04T12:10:14.052Z,953.15
2016-11-04T12:11:13.063Z,953.12
2016-11-04T12:12:13.715Z,953.09
2016-11-04T12:13:15.374Z,953.06
2016-11-04T12:14:18.995Z,953.03
2016-11-04T12:15:13.045Z,953.02
2016-11-04T12:16:13.385Z,952.98
2016-11-04T12:17:13.390Z,952.96
2016-11-04T12:18:13.189Z,952.92
2016-11-04T12:19:18.274Z,952.89
2016-11-04T12:20:12.991Z,952.90
2016-11-04T12:21:12.531Z,952.83
2016-11-04T12:22:13.532Z,952.80
2016-11-04T12:23:13.236Z,952.76
2016-11-04T12:24:13.314Z,952.78
2016-11-04T12:25:14.147Z,952.75
2016-11-04T12:26:13.220Z,952.73
2016-11-04T12:27:13.217Z,952.75
2016-11-04T12:28:12.838Z,952.71